Time;durP1;ratioP1;P1;durP2;ratioP2;P2;SDS_P1;SDS_P2;PMS_P1;PMS_P2;Temp;Humidity;BMP_temperature;BMP_pressure;BME280_temperature;BME280_humidity;BME280_pressure;Samples;Min_cycle;Max_cycle;Signal;HPM_P1;HPM_P2
2023/10/03 00:00:36;;;;;;;39.70;23.10;;;17.00;24.50;;;;;;4969872;28;20461;-67
2023/10/03 00:03:08;;;;;;;48.07;24.33;;;16.90;24.30;;;;;;4967909;28;20494;-67
2023/10/03 00:05:36;;;;;;;45.87;25.03;;;17.00;24.30;;;;;;4968770;28;20481;-67
2023/10/03 00:08:04;;;;;;;51.97;25.93;;;17.00;24.40;;;;;;4967108;28;20524;-67
2023/10/03 00:10:33;;;;;;;43.27;23.33;;;17.00;24.70;;;;;;4966097;28;20477;-67
2023/10/03 00:13:00;;;;;;;46.97;24.40;;;17.00;24.70;;;;;;4970536;28;20468;-68
2023/10/03 00:15:28;;;;;;;43.87;25.67;;;17.00;25.10;;;;;;4970096;28;20485;-67
2023/10/03 00:17:55;;;;;;;44.33;24.70;;;17.00;24.90;;;;;;4969380;28;20468;-67
2023/10/03 00:20:24;;;;;;;46.90;25.90;;;17.00;25.00;;;;;;4969018;28;20469;-68
2023/10/03 00:22:51;;;;;;;48.10;25.60;;;17.00;25.20;;;;;;4967668;28;20467;-68
2023/10/03 00:25:19;;;;;;;43.33;24.20;;;16.90;25.30;;;;;;4971565;28;20484;-68
2023/10/03 00:27:49;;;;;;;40.87;22.90;;;16.90;25.00;;;;;;4971645;28;20505;-68
2023/10/03 00:30:16;;;;;;;37.30;20.63;;;16.90;24.60;;;;;;4972948;28;20544;-67
2023/10/03 00:32:43;;;;;;;39.60;21.83;;;16.90;24.40;;;;;;4973325;28;20466;-68
2023/10/03 00:35:11;;;;;;;46.00;24.13;;;16.90;24.10;;;;;;4971858;28;20489;-67
2023/10/03 00:37:40;;;;;;;41.53;23.30;;;16.90;24.00;;;;;;4972107;28;20477;-67
2023/10/03 00:40:16;;;;;;;39.70;21.63;;;16.80;24.10;;;;;;4971488;28;20473;-67
2023/10/03 00:42:45;;;;;;;39.97;21.57;;;16.80;24.10;;;;;;4970557;28;20513;-67
2023/10/03 00:45:14;;;;;;;37.63;22.70;;;16.80;23.90;;;;;;4973711;28;21736;-67
2023/10/03 00:47:42;;;;;;;43.83;21.80;;;16.70;23.90;;;;;;4972119;28;20470;-67
2023/10/03 00:50:10;;;;;;;41.87;22.80;;;16.70;24.00;;;;;;4969062;28;20493;-67
2023/10/03 00:52:37;;;;;;;37.57;20.83;;;16.60;23.70;;;;;;4968241;28;20458;-67
2023/10/03 00:55:06;;;;;;;40.67;21.20;;;16.50;23.60;;;;;;4967669;28;20486;-67
2023/10/03 00:57:33;;;;;;;44.33;22.80;;;16.50;23.30;;;;;;4966941;28;20466;-67
2023/10/03 01:00:00;;;;;;;45.67;22.50;;;16.50;23.40;;;;;;4968461;28;20470;-67
2023/10/03 01:02:27;;;;;;;46.73;23.00;;;16.50;23.20;;;;;;4970324;28;20484;-67
2023/10/03 01:04:54;;;;;;;42.53;21.63;;;16.40;23.20;;;;;;4965134;28;20489;-67
2023/10/03 01:07:23;;;;;;;40.20;21.80;;;16.30;23.30;;;;;;4965069;28;20504;-67
2023/10/03 01:09:50;;;;;;;42.60;22.27;;;16.30;23.50;;;;;;4961659;28;20473;-67
2023/10/03 01:12:18;;;;;;;45.70;24.00;;;16.30;23.50;;;;;;4971321;28;20470;-68
2023/10/03 01:14:46;;;;;;;45.83;22.07;;;16.20;23.50;;;;;;4964167;28;20500;-67
2023/10/03 01:17:15;;;;;;;42.57;23.87;;;16.20;23.80;;;;;;4963042;28;20480;-68
2023/10/03 01:19:43;;;;;;;44.43;21.17;;;16.20;23.70;;;;;;4969682;28;20465;-67
2023/10/03 01:22:11;;;;;;;43.80;23.67;;;16.20;23.50;;;;;;4964264;28;20465;-67
2023/10/03 01:24:39;;;;;;;37.57;20.33;;;16.20;23.60;;;;;;4966350;28;20998;-68
2023/10/03 01:27:06;;;;;;;41.90;21.20;;;16.10;23.40;;;;;;4964426;28;20472;-68
2023/10/03 01:29:32;;;;;;;41.30;21.97;;;16.10;23.50;;;;;;4974407;28;20476;-67
2023/10/03 01:32:00;;;;;;;45.50;22.90;;;16.00;23.80;;;;;;4975875;28;20873;-67
2023/10/03 01:34:27;;;;;;;41.47;20.70;;;16.00;24.30;;;;;;4973888;28;20928;-68
2023/10/03 01:36:54;;;;;;;38.83;20.70;;;16.00;24.50;;;;;;4969387;28;20489;-67
2023/10/03 01:39:21;;;;;;;45.73;22.50;;;16.00;24.80;;;;;;4970724;28;21196;-68
2023/10/03 01:41:49;;;;;;;42.03;21.93;;;16.10;25.90;;;;;;4970694;28;20461;-67
2023/10/03 01:44:16;;;;;;;43.60;23.00;;;16.10;25.70;;;;;;4979221;28;20488;-67
2023/10/03 01:46:44;;;;;;;43.03;22.53;;;16.10;25.80;;;;;;4981055;28;20470;-68
2023/10/03 01:49:14;;;;;;;46.50;22.10;;;16.10;25.90;;;;;;4971716;28;20492;-67
2023/10/03 01:51:40;;;;;;;45.83;22.83;;;16.10;26.00;;;;;;4970201;28;20520;-68
2023/10/03 01:54:07;;;;;;;43.33;22.57;;;16.10;26.10;;;;;;4975060;28;20485;-68
2023/10/03 01:56:34;;;;;;;42.73;23.13;;;16.10;25.80;;;;;;4971962;28;21252;-68
2023/10/03 01:59:02;;;;;;;40.03;21.10;;;16.10;25.90;;;;;;4975437;28;20462;-67
2023/10/03 02:01:29;;;;;;;36.97;19.80;;;16.10;26.10;;;;;;4973100;28;20481;-68
2023/10/03 02:03:56;;;;;;;44.47;22.37;;;16.10;25.80;;;;;;4972531;28;20481;-68
2023/10/03 02:06:23;;;;;;;42.57;23.20;;;16.10;25.70;;;;;;4973248;28;20500;-68
2023/10/03 02:08:50;;;;;;;40.77;21.33;;;16.10;25.70;;;;;;4977862;28;20495;-67
2023/10/03 02:11:17;;;;;;;38.00;20.73;;;16.00;25.80;;;;;;4973518;28;20489;-67
2023/10/03 02:13:45;;;;;;;46.70;22.97;;;16.00;25.60;;;;;;4974431;28;20552;-68
2023/10/03 02:16:13;;;;;;;41.33;22.20;;;16.00;25.80;;;;;;4972201;28;20548;-68
2023/10/03 02:18:42;;;;;;;38.20;20.23;;;16.10;26.20;;;;;;4970895;28;20835;-67
2023/10/03 02:21:09;;;;;;;43.73;21.80;;;16.10;26.20;;;;;;4976164;28;20941;-68
2023/10/03 02:23:35;;;;;;;44.80;22.37;;;16.10;26.20;;;;;;4972463;28;20563;-67
2023/10/03 02:26:10;;;;;;;41.10;21.67;;;16.10;26.40;;;;;;4978211;28;20462;-67
2023/10/03 02:28:37;;;;;;;39.27;21.30;;;16.10;26.40;;;;;;4975487;28;20958;-67
2023/10/03 02:31:07;;;;;;;41.93;20.50;;;16.10;26.20;;;;;;4976604;28;20495;-67
2023/10/03 02:33:37;;;;;;;35.73;19.40;;;16.10;26.80;;;;;;4974791;28;20461;-67
2023/10/03 02:36:04;;;;;;;38.10;19.97;;;16.10;26.10;;;;;;4973507;28;20458;-67
2023/10/03 02:38:36;;;;;;;41.50;19.83;;;16.10;26.30;;;;;;4976142;28;20452;-67
2023/10/03 02:41:03;;;;;;;40.67;21.00;;;16.10;25.90;;;;;;4973530;28;20465;-68
2023/10/03 02:43:31;;;;;;;33.90;17.83;;;16.10;26.00;;;;;;4974502;28;20473;-67
2023/10/03 02:45:59;;;;;;;42.07;20.17;;;16.10;26.00;;;;;;4975457;28;20465;-67
2023/10/03 02:48:26;;;;;;;40.30;20.57;;;16.00;25.80;;;;;;4973560;28;20499;-67
2023/10/03 02:50:55;;;;;;;39.67;18.50;;;16.00;25.70;;;;;;4973963;28;20496;-67
2023/10/03 02:53:21;;;;;;;41.57;21.50;;;16.10;25.90;;;;;;4972412;28;20461;-67
2023/10/03 02:55:49;;;;;;;39.57;20.13;;;16.10;26.00;;;;;;4976778;28;20956;-67
2023/10/03 02:58:16;;;;;;;37.67;19.13;;;16.10;25.80;;;;;;4974065;28;20488;-67
2023/10/03 03:00:46;;;;;;;38.70;19.70;;;16.10;25.60;;;;;;4974234;28;20497;-67
2023/10/03 03:03:14;;;;;;;44.97;22.40;;;16.10;25.80;;;;;;4975181;28;20876;-67
2023/10/03 03:05:43;;;;;;;45.37;22.10;;;16.10;25.80;;;;;;4975218;28;20777;-67
2023/10/03 03:08:22;;;;;;;46.27;21.83;;;16.10;26.00;;;;;;4977801;28;20465;-67
2023/10/03 03:10:54;;;;;;;41.50;20.80;;;16.10;26.00;;;;;;4972830;28;20489;-67
2023/10/03 03:13:22;;;;;;;37.20;19.90;;;16.10;26.70;;;;;;4970943;28;20470;-68
2023/10/03 03:15:53;;;;;;;41.00;19.70;;;16.10;25.80;;;;;;4970930;28;20722;-67
2023/10/03 03:18:21;;;;;;;44.57;20.60;;;16.20;25.60;;;;;;4976461;28;20545;-67
2023/10/03 03:20:53;;;;;;;43.13;22.47;;;16.20;25.40;;;;;;4975798;28;20829;-67
2023/10/03 03:23:22;;;;;;;41.83;21.10;;;16.10;25.20;;;;;;4971362;28;20474;-68
2023/10/03 03:25:57;;;;;;;39.10;19.97;;;16.10;25.90;;;;;;4970629;28;20458;-67
2023/10/03 03:28:24;;;;;;;38.63;19.13;;;16.10;25.10;;;;;;4979642;28;20474;-67
2023/10/03 03:30:56;;;;;;;40.77;21.23;;;16.10;25.00;;;;;;4976135;28;20485;-68
2023/10/03 03:33:27;;;;;;;36.53;19.93;;;16.10;25.30;;;;;;4974169;28;20949;-68
2023/10/03 03:35:54;;;;;;;41.80;19.80;;;16.10;25.20;;;;;;4969275;28;20823;-67
2023/10/03 03:38:23;;;;;;;38.27;17.90;;;16.10;25.10;;;;;;4977910;28;20461;-67
2023/10/03 03:40:55;;;;;;;36.17;19.83;;;16.10;25.20;;;;;;4978354;28;20473;-67
2023/10/03 03:43:22;;;;;;;35.13;19.37;;;16.10;25.10;;;;;;4979321;28;20453;-68
2023/10/03 03:45:51;;;;;;;35.47;18.50;;;16.10;25.20;;;;;;4971321;28;20497;-68
2023/10/03 03:48:19;;;;;;;34.13;16.77;;;16.10;25.10;;;;;;4978940;28;20846;-67
2023/10/03 03:50:45;;;;;;;37.20;18.40;;;16.10;25.00;;;;;;4974667;28;20470;-67
2023/10/03 03:53:12;;;;;;;34.70;17.33;;;16.10;25.00;;;;;;4974765;28;20456;-67
2023/10/03 03:55:41;;;;;;;36.23;18.50;;;16.10;25.10;;;;;;4970343;28;20559;-66
2023/10/03 03:58:14;;;;;;;37.20;17.70;;;16.10;24.80;;;;;;4972752;28;20516;-66
2023/10/03 04:00:47;;;;;;;33.93;17.47;;;16.10;24.90;;;;;;4966116;28;20486;-66
2023/10/03 04:03:14;;;;;;;40.30;19.40;;;16.10;24.90;;;;;;4969518;28;20473;-68
2023/10/03 04:05:40;;;;;;;43.27;19.07;;;16.10;24.90;;;;;;4971737;28;20509;-68
2023/10/03 04:08:08;;;;;;;40.63;18.53;;;16.10;24.80;;;;;;4969937;28;20855;-68
2023/10/03 04:10:36;;;;;;;37.97;18.93;;;16.10;24.50;;;;;;4971602;28;20461;-68
2023/10/03 04:13:09;;;;;;;36.60;18.10;;;16.10;24.40;;;;;;4966215;28;20509;-67
2023/10/03 04:15:39;;;;;;;34.20;17.23;;;16.10;24.60;;;;;;4968809;28;20492;-68
2023/10/03 04:18:06;;;;;;;41.10;19.70;;;16.10;24.60;;;;;;4969462;28;20475;-67
2023/10/03 04:20:35;;;;;;;37.17;17.43;;;16.10;24.20;;;;;;4966256;28;20462;-68
2023/10/03 04:23:03;;;;;;;31.57;16.87;;;16.10;24.20;;;;;;4967429;28;20465;-68
2023/10/03 04:25:32;;;;;;;35.93;16.77;;;16.10;24.20;;;;;;4974127;28;20517;-68
2023/10/03 04:27:59;;;;;;;33.17;16.23;;;16.10;24.10;;;;;;4974097;28;20504;-67
2023/10/03 04:30:28;;;;;;;38.43;17.00;;;16.10;24.30;;;;;;4978323;28;20480;-67
2023/10/03 04:32:55;;;;;;;31.13;16.90;;;16.10;24.50;;;;;;4974019;28;20489;-67
2023/10/03 04:35:23;;;;;;;34.53;15.60;;;16.10;24.50;;;;;;4970379;28;20520;-67
2023/10/03 04:37:51;;;;;;;31.53;17.10;;;16.10;24.30;;;;;;4972815;28;20469;-67
2023/10/03 04:40:22;;;;;;;31.87;16.50;;;16.10;24.20;;;;;;4976667;28;20465;-67
2023/10/03 04:42:50;;;;;;;37.50;17.40;;;16.00;24.20;;;;;;4976428;28;21035;-67
2023/10/03 04:45:19;;;;;;;32.30;17.40;;;16.00;24.10;;;;;;4970589;28;20482;-67
2023/10/03 04:47:48;;;;;;;32.10;18.17;;;16.10;24.40;;;;;;4973262;28;21158;-67
2023/10/03 04:50:17;;;;;;;35.07;18.53;;;16.10;24.70;;;;;;4968651;28;20465;-67
2023/10/03 04:52:47;;;;;;;34.20;19.00;;;16.00;24.50;;;;;;4966164;28;20859;-67
2023/10/03 04:55:16;;;;;;;35.77;16.57;;;16.00;24.80;;;;;;4971915;28;20520;-68
2023/10/03 04:57:43;;;;;;;34.70;17.00;;;16.10;24.70;;;;;;4969085;28;20470;-68
2023/10/03 05:00:11;;;;;;;32.83;16.47;;;16.00;24.90;;;;;;4971060;28;20475;-68
2023/10/03 05:02:39;;;;;;;35.90;17.60;;;16.10;24.80;;;;;;4965296;28;20468;-68
2023/10/03 05:05:10;;;;;;;34.07;17.00;;;16.10;24.90;;;;;;4971597;28;20485;-68
2023/10/03 05:07:37;;;;;;;39.93;17.47;;;16.20;24.90;;;;;;4967122;28;20464;-68
2023/10/03 05:10:04;;;;;;;34.43;16.13;;;16.20;24.80;;;;;;4966719;28;20969;-67
2023/10/03 05:12:31;;;;;;;31.37;17.40;;;16.20;24.90;;;;;;4965761;28;20485;-67
2023/10/03 05:14:58;;;;;;;35.97;15.90;;;16.20;24.90;;;;;;4965886;28;20493;-68
2023/10/03 05:17:26;;;;;;;32.33;16.50;;;16.20;24.90;;;;;;4969164;28;20853;-68
2023/10/03 05:19:53;;;;;;;32.03;16.50;;;16.20;24.90;;;;;;4961115;28;20958;-68
2023/10/03 05:22:23;;;;;;;33.20;16.87;;;16.30;24.70;;;;;;4963474;28;20461;-67
2023/10/03 05:24:50;;;;;;;32.40;18.00;;;16.30;25.10;;;;;;4962902;28;20581;-68
2023/10/03 05:30:01;;;;;;;32.87;17.20;;;16.30;25.00;;;;;;4980334;28;20491;-65
2023/10/03 05:32:29;;;;;;;29.67;15.97;;;16.30;25.10;;;;;;4979948;28;20495;-64
2023/10/03 05:34:58;;;;;;;31.23;17.37;;;16.30;25.00;;;;;;5003736;23;21202;-66
2023/10/03 05:37:26;;;;;;;37.17;17.13;;;16.40;24.90;;;;;;4990273;28;20472;-66
2023/10/03 05:39:53;;;;;;;31.23;15.63;;;16.50;24.90;;;;;;4988202;28;20540;-66
2023/10/03 05:42:20;;;;;;;31.20;16.47;;;16.50;24.50;;;;;;4989003;28;20453;-66
2023/10/03 05:44:47;;;;;;;29.57;15.43;;;16.60;24.60;;;;;;4986684;28;20523;-66
2023/10/03 05:47:14;;;;;;;30.20;15.70;;;16.70;24.50;;;;;;4986107;28;20464;-66
2023/10/03 05:49:43;;;;;;;34.97;17.93;;;16.90;24.40;;;;;;4986380;28;20468;-66
2023/10/03 05:52:10;;;;;;;30.17;15.80;;;17.00;24.30;;;;;;4986890;28;20487;-67
2023/10/03 05:54:38;;;;;;;30.97;16.30;;;17.20;23.80;;;;;;4987507;28;21217;-67
2023/10/03 05:57:05;;;;;;;35.27;18.67;;;17.40;23.10;;;;;;4986725;28;20464;-67
2023/10/03 05:59:32;;;;;;;29.23;15.33;;;17.80;22.00;;;;;;4987786;28;20469;-67
2023/10/03 06:01:58;;;;;;;28.40;15.30;;;18.10;20.90;;;;;;4986955;28;20472;-67
2023/10/03 06:04:25;;;;;;;30.97;15.67;;;18.30;19.90;;;;;;4983154;28;20488;-67
2023/10/03 06:06:52;;;;;;;33.07;18.57;;;18.50;19.30;;;;;;4984417;28;20476;-67
2023/10/03 06:09:20;;;;;;;33.00;16.23;;;19.00;18.40;;;;;;4984552;28;20979;-66
2023/10/03 06:11:48;;;;;;;30.70;16.93;;;19.20;17.80;;;;;;4989497;28;20489;-66
2023/10/03 06:14:15;;;;;;;29.23;15.80;;;19.50;17.50;;;;;;4988703;28;20528;-66
2023/10/03 06:16:42;;;;;;;29.93;16.07;;;20.00;16.80;;;;;;4985689;28;20462;-66
2023/10/03 06:19:10;;;;;;;29.73;16.57;;;20.50;15.20;;;;;;4987576;28;20847;-65
2023/10/03 06:21:37;;;;;;;31.63;16.40;;;20.80;14.20;;;;;;4983873;28;20461;-65
2023/10/03 06:24:05;;;;;;;33.40;16.87;;;21.00;13.40;;;;;;4979568;28;20584;-63
2023/10/03 06:26:31;;;;;;;29.33;14.57;;;21.10;13.00;;;;;;4985467;28;20495;-65
2023/10/03 06:28:59;;;;;;;26.80;15.97;;;21.30;12.80;;;;;;4987448;28;20471;-64
2023/10/03 06:31:26;;;;;;;25.43;14.80;;;21.40;12.30;;;;;;4990202;28;20484;-64
2023/10/03 06:33:53;;;;;;;30.50;16.60;;;21.50;12.20;;;;;;4988615;28;20492;-64
2023/10/03 06:36:20;;;;;;;27.53;15.63;;;21.70;11.90;;;;;;4989224;28;20460;-63
2023/10/03 06:38:49;;;;;;;28.93;14.43;;;21.90;11.30;;;;;;4986065;28;20471;-64
2023/10/03 06:41:19;;;;;;;27.10;15.63;;;22.10;10.80;;;;;;4983182;28;20515;-64
2023/10/03 06:43:46;;;;;;;25.97;15.40;;;22.20;10.10;;;;;;4986975;28;20512;-65
2023/10/03 06:46:15;;;;;;;27.60;15.90;;;22.40;9.50;;;;;;4990371;28;20946;-65
2023/10/03 06:48:43;;;;;;;30.20;15.07;;;22.70;8.90;;;;;;4989308;28;20492;-64
2023/10/03 06:51:10;;;;;;;29.10;15.83;;;23.10;8.60;;;;;;4988324;28;20468;-64
2023/10/03 06:53:36;;;;;;;28.67;16.10;;;23.60;7.20;;;;;;4990346;28;20491;-65
2023/10/03 06:56:03;;;;;;;25.70;15.03;;;24.30;5.90;;;;;;4988298;28;20484;-65
2023/10/03 06:58:30;;;;;;;24.47;16.03;;;24.60;4.90;;;;;;4989603;28;20468;-65
2023/10/03 07:00:58;;;;;;;26.60;15.13;;;24.70;4.50;;;;;;4989216;28;20499;-65
2023/10/03 07:03:26;;;;;;;22.97;14.77;;;24.90;4.20;;;;;;4987723;28;20830;-65
2023/10/03 07:05:54;;;;;;;25.70;14.90;;;25.10;3.50;;;;;;4988773;28;20961;-65
2023/10/03 07:08:20;;;;;;;26.03;14.97;;;25.70;2.40;;;;;;4982291;28;20559;-63
2023/10/03 07:10:47;;;;;;;26.00;14.80;;;26.70;1.00;;;;;;4985563;28;21000;-63
2023/10/03 07:13:14;;;;;;;25.47;14.63;;;27.70;1.00;;;;;;4988717;28;20495;-64
2023/10/03 07:15:42;;;;;;;25.30;15.10;;;28.80;1.00;;;;;;4987998;28;20592;-65
2023/10/03 07:18:09;;;;;;;26.17;15.80;;;29.80;1.00;;;;;;4986774;28;20918;-64
2023/10/03 07:20:38;;;;;;;21.70;13.83;;;30.80;1.00;;;;;;4987287;28;20515;-64
2023/10/03 07:23:05;;;;;;;25.00;15.40;;;31.80;1.00;;;;;;4989762;28;20464;-65
2023/10/03 07:25:33;;;;;;;21.53;13.10;;;32.50;1.00;;;;;;4991066;28;20568;-63
2023/10/03 07:28:00;;;;;;;21.60;14.33;;;33.00;1.00;;;;;;4988806;28;20475;-64
2023/10/03 07:30:27;;;;;;;21.17;13.10;;;34.00;1.00;;;;;;4989330;28;20472;-64
2023/10/03 07:32:54;;;;;;;21.83;14.97;;;34.90;1.00;;;;;;4987411;28;20495;-64
2023/10/03 07:35:22;;;;;;;26.00;15.00;;;35.80;1.00;;;;;;4989380;28;20488;-64
2023/10/03 07:37:51;;;;;;;20.77;13.97;;;36.60;1.00;;;;;;4988274;28;21037;-65
2023/10/03 07:40:21;;;;;;;22.37;14.33;;;37.40;1.00;;;;;;4986517;28;20473;-65
2023/10/03 07:42:49;;;;;;;23.53;14.27;;;38.10;1.00;;;;;;4986482;28;20476;-69
2023/10/03 07:45:15;;;;;;;20.03;13.67;;;38.70;1.00;;;;;;4984114;28;20882;-65
2023/10/03 07:47:44;;;;;;;20.73;12.97;;;39.20;1.00;;;;;;4987221;28;20476;-66
2023/10/03 07:50:13;;;;;;;20.17;13.80;;;39.80;1.00;;;;;;4988567;28;20500;-66
2023/10/03 07:52:41;;;;;;;22.23;14.30;;;40.40;1.00;;;;;;4989478;28;21100;-66
2023/10/03 07:55:11;;;;;;;22.87;14.00;;;41.10;1.00;;;;;;4987212;28;20501;-66
2023/10/03 07:57:41;;;;;;;19.90;13.47;;;41.60;1.00;;;;;;4987230;28;20476;-66
2023/10/03 08:00:19;;;;;;;20.33;13.50;;;42.20;1.00;;;;;;4987309;28;20460;-66
2023/10/03 08:02:46;;;;;;;19.20;12.17;;;42.70;1.00;;;;;;4987481;28;20472;-65
2023/10/03 08:05:13;;;;;;;22.10;12.73;;;43.20;1.00;;;;;;4987375;28;20488;-64
2023/10/03 08:07:39;;;;;;;17.20;12.67;;;43.50;1.00;;;;;;4988515;28;20461;-67
2023/10/03 08:10:07;;;;;;;18.07;13.07;;;43.70;1.00;;;;;;4987575;28;20487;-66
2023/10/03 08:12:38;;;;;;;19.43;12.33;;;44.20;1.00;;;;;;4985679;28;20480;-66
2023/10/03 08:15:16;;;;;;;18.07;12.17;;;44.40;1.00;;;;;;4987940;28;20483;-64
2023/10/03 08:17:44;;;;;;;18.70;12.30;;;45.00;1.00;;;;;;4988144;28;20461;-65
2023/10/03 08:20:14;;;;;;;20.10;13.43;;;45.40;1.00;;;;;;4987193;28;20907;-65
2023/10/03 08:22:42;;;;;;;18.87;12.50;;;45.80;1.00;;;;;;4980227;28;20524;-69
2023/10/03 08:25:10;;;;;;;18.43;12.80;;;46.10;1.00;;;;;;4985043;28;20543;-66
2023/10/03 08:27:38;;;;;;;20.53;12.90;;;46.50;1.00;;;;;;4987305;28;20917;-68
2023/10/03 08:30:06;;;;;;;16.83;11.53;;;46.40;1.00;;;;;;4983220;28;20461;-69
2023/10/03 08:32:39;;;;;;;16.70;11.70;;;45.90;1.00;;;;;;4983133;28;20488;-64
2023/10/03 08:35:08;;;;;;;15.70;11.70;;;46.30;1.00;;;;;;4984993;28;20495;-65
2023/10/03 08:37:38;;;;;;;17.10;10.93;;;46.60;1.00;;;;;;4984272;28;20472;-66
2023/10/03 08:40:19;;;;;;;13.47;10.53;;;46.80;1.00;;;;;;4982246;28;20828;-65
2023/10/03 08:42:52;;;;;;;14.60;10.47;;;46.90;1.00;;;;;;4982383;28;20458;-67
2023/10/03 08:45:22;;;;;;;13.97;11.40;;;47.20;1.00;;;;;;4984300;28;20588;-67
2023/10/03 08:47:51;;;;;;;14.40;10.17;;;47.50;1.00;;;;;;4985637;28;20556;-64
2023/10/03 08:50:33;;;;;;;16.07;10.63;;;47.70;1.00;;;;;;4984038;28;20458;-66
2023/10/03 08:53:12;;;;;;;15.93;10.90;;;47.90;1.00;;;;;;4983416;28;20489;-66
2023/10/03 08:55:43;;;;;;;14.23;11.83;;;48.10;1.00;;;;;;4983365;28;20481;-65
2023/10/03 08:58:13;;;;;;;12.90;10.20;;;48.40;1.00;;;;;;4985065;28;20496;-66
2023/10/03 09:00:44;;;;;;;14.03;11.30;;;48.60;1.00;;;;;;4984510;28;20995;-66
2023/10/03 09:03:13;;;;;;;14.20;10.07;;;48.80;1.00;;;;;;4982700;28;20464;-66
2023/10/03 09:05:41;;;;;;;14.27;10.00;;;48.80;1.00;;;;;;4981938;28;20492;-67
2023/10/03 09:08:09;;;;;;;11.93;9.10;;;49.30;1.00;;;;;;4983218;28;20563;-65
2023/10/03 09:10:43;;;;;;;14.47;11.50;;;49.30;1.00;;;;;;4984543;28;20892;-66
2023/10/03 09:13:23;;;;;;;11.20;9.17;;;49.60;1.00;;;;;;4983741;28;20499;-66
2023/10/03 09:15:50;;;;;;;12.40;9.30;;;49.80;1.00;;;;;;4983661;28;20469;-65
2023/10/03 09:18:21;;;;;;;14.00;9.20;;;50.10;1.00;;;;;;4985398;28;20459;-65
2023/10/03 09:20:49;;;;;;;15.17;10.03;;;50.00;1.00;;;;;;4984925;28;20622;-65
2023/10/03 09:23:17;;;;;;;13.10;9.20;;;50.20;1.00;;;;;;4985792;28;20456;-65
2023/10/03 09:25:52;;;;;;;13.33;9.10;;;50.20;1.00;;;;;;4987430;28;20460;-66
2023/10/03 09:28:27;;;;;;;10.23;8.47;;;50.30;1.00;;;;;;4981321;28;20480;-67
2023/10/03 09:30:56;;;;;;;12.00;8.77;;;50.40;1.00;;;;;;4983267;28;20887;-67
2023/10/03 09:33:24;;;;;;;12.50;9.53;;;50.50;1.00;;;;;;4986535;28;20487;-67
2023/10/03 09:35:57;;;;;;;11.93;8.80;;;50.30;1.00;;;;;;4986092;28;20478;-67
2023/10/03 09:38:42;;;;;;;33.83;10.63;;;50.10;1.00;;;;;;4985593;28;20468;-65
2023/10/03 09:41:09;;;;;;;11.90;8.60;;;50.10;1.00;;;;;;4981347;28;20452;-66
2023/10/03 09:43:37;;;;;;;11.47;7.97;;;50.30;1.00;;;;;;4983138;28;20472;-66
2023/10/03 09:46:04;;;;;;;12.13;8.60;;;50.20;1.00;;;;;;4979847;28;20474;-66
2023/10/03 09:48:32;;;;;;;11.53;8.53;;;50.10;1.00;;;;;;4985950;28;20457;-66
2023/10/03 09:51:05;;;;;;;10.07;7.40;;;50.00;1.00;;;;;;4985506;28;20838;-66
2023/10/03 09:53:32;;;;;;;10.33;7.80;;;49.80;1.00;;;;;;4981758;28;20486;-67
2023/10/03 09:56:08;;;;;;;12.90;8.53;;;49.40;1.00;;;;;;4981722;28;20457;-66
2023/10/03 09:58:35;;;;;;;14.13;8.27;;;49.00;1.00;;;;;;4980668;28;20497;-65
2023/10/03 10:01:06;;;;;;;11.20;8.50;;;48.90;1.00;;;;;;4983131;28;20496;-71
2023/10/03 10:03:39;;;;;;;12.40;7.80;;;48.50;1.00;;;;;;4985089;28;20831;-64
2023/10/03 10:06:19;;;;;;;19.43;8.67;;;48.30;1.00;;;;;;4981547;28;21162;-64
2023/10/03 10:08:57;;;;;;;11.27;7.83;;;47.90;1.00;;;;;;4985697;28;20559;-64
2023/10/03 10:11:26;;;;;;;13.10;8.03;;;47.30;1.00;;;;;;4979153;28;20459;-65
2023/10/03 10:14:08;;;;;;;11.90;8.53;;;46.60;1.00;;;;;;4983034;28;20530;-63
2023/10/03 10:16:58;;;;;;;20.23;9.00;;;46.10;1.00;;;;;;4983412;28;20957;-63
2023/10/03 10:19:25;;;;;;;14.63;8.33;;;45.50;1.00;;;;;;4986653;28;20847;-63
2023/10/03 10:21:55;;;;;;;12.40;7.90;;;44.70;1.00;;;;;;4987925;28;20468;-63
2023/10/03 10:24:28;;;;;;;12.57;8.63;;;44.20;1.00;;;;;;4985637;28;20508;-63
2023/10/03 10:26:59;;;;;;;11.87;7.40;;;43.80;1.00;;;;;;4987632;28;20526;-64
2023/10/03 10:29:28;;;;;;;10.87;7.43;;;43.10;1.00;;;;;;4986745;28;20467;-65
2023/10/03 10:31:59;;;;;;;12.80;6.80;;;42.30;1.00;;;;;;4984056;28;20489;-64
2023/10/03 10:34:40;;;;;;;12.03;7.13;;;41.60;1.00;;;;;;4984002;28;20488;-64
2023/10/03 10:37:10;;;;;;;11.90;7.27;;;40.90;1.00;;;;;;4984678;28;20460;-63
2023/10/03 10:40:09;;;;;;;9.93;7.43;;;40.30;1.00;;;;;;4988060;28;20464;-63
2023/10/03 10:43:04;;;;;;;15.43;8.20;;;39.60;1.00;;;;;;4987380;28;20600;-67
2023/10/03 10:45:37;;;;;;;11.40;7.60;;;39.00;1.00;;;;;;4983964;28;21032;-65
2023/10/03 10:48:07;;;;;;;9.67;7.30;;;38.40;1.00;;;;;;4987055;28;20476;-67
2023/10/03 10:51:07;;;;;;;10.80;7.07;;;38.00;1.00;;;;;;4985173;28;20488;-65
2023/10/03 10:53:42;;;;;;;10.50;6.90;;;37.70;1.00;;;;;;4986103;28;20540;-64
2023/10/03 10:56:09;;;;;;;9.40;7.00;;;37.50;1.00;;;;;;4986893;28;20456;-64
2023/10/03 10:58:50;;;;;;;11.27;6.70;;;37.30;1.00;;;;;;4985813;28;20496;-65
2023/10/03 11:01:18;;;;;;;11.10;6.87;;;37.20;1.00;;;;;;4988124;28;20483;-64
2023/10/03 11:03:46;;;;;;;11.33;7.47;;;37.10;1.00;;;;;;4986558;28;20534;-65
2023/10/03 11:06:17;;;;;;;11.03;7.77;;;37.10;1.00;;;;;;4988771;28;20453;-64
2023/10/03 11:08:45;;;;;;;12.57;6.70;;;37.10;1.00;;;;;;4990273;28;20487;-65
2023/10/03 11:11:11;;;;;;;10.93;7.50;;;37.20;1.00;;;;;;4987739;28;20469;-65
2023/10/03 11:13:45;;;;;;;9.37;6.43;;;37.20;1.00;;;;;;4997706;23;20566;-66
2023/10/03 11:16:20;;;;;;;14.80;7.13;;;37.00;1.00;;;;;;4965080;28;20496;-69
2023/10/03 11:18:49;;;;;;;11.20;6.37;;;36.90;1.00;;;;;;4969491;28;20975;-69
2023/10/03 11:21:17;;;;;;;10.60;6.90;;;36.90;1.00;;;;;;4968615;28;20955;-65
2023/10/03 11:24:13;;;;;;;14.60;6.43;;;36.80;1.00;;;;;;4965719;28;20478;-70
2023/10/03 11:26:47;;;;;;;9.10;5.50;;;36.70;1.00;;;;;;4966838;28;20465;-67
2023/10/03 11:29:16;;;;;;;8.77;6.30;;;36.70;1.00;;;;;;4967402;28;20469;-67
2023/10/03 11:31:44;;;;;;;16.27;6.43;;;36.60;1.00;;;;;;4961717;28;20490;-67
2023/10/03 11:34:12;;;;;;;9.37;5.40;;;36.40;1.00;;;;;;4961352;28;22951;-68
2023/10/03 11:36:43;;;;;;;8.80;5.50;;;36.00;1.00;;;;;;4967342;28;20476;-67
2023/10/03 11:39:12;;;;;;;7.13;5.00;;;35.50;1.00;;;;;;4963223;28;20481;-69
2023/10/03 11:41:40;;;;;;;10.50;5.77;;;34.90;1.00;;;;;;4966454;28;20473;-71
2023/10/03 11:44:19;;;;;;;13.90;5.10;;;34.50;1.00;;;;;;4967141;28;20489;-70
2023/10/03 11:46:46;;;;;;;7.97;5.23;;;34.00;1.00;;;;;;4965854;28;20462;-70
2023/10/03 11:49:15;;;;;;;9.27;5.40;;;33.60;1.00;;;;;;4966695;28;20461;-71
2023/10/03 11:51:43;;;;;;;9.80;5.47;;;33.40;1.00;;;;;;4965927;28;20465;-71
2023/10/03 11:54:10;;;;;;;8.90;5.00;;;33.30;1.00;;;;;;4968658;28;20490;-70
2023/10/03 11:56:41;;;;;;;10.57;5.90;;;33.10;1.00;;;;;;4970507;28;20466;-70
2023/10/03 11:59:08;;;;;;;10.17;5.57;;;33.20;1.00;;;;;;4970557;28;20457;-69
2023/10/03 12:01:35;;;;;;;11.30;5.30;;;33.20;1.00;;;;;;4968760;28;20485;-70
2023/10/03 12:04:02;;;;;;;11.23;5.40;;;33.10;1.00;;;;;;4970521;28;20531;-70
2023/10/03 12:06:31;;;;;;;8.27;4.67;;;33.00;1.00;;;;;;4968490;28;20476;-70
2023/10/03 12:08:58;;;;;;;8.60;5.10;;;32.70;1.00;;;;;;4966724;28;20466;-71
2023/10/03 12:11:25;;;;;;;8.50;5.50;;;32.40;1.00;;;;;;4968916;28;20474;-70
2023/10/03 12:13:52;;;;;;;9.97;5.57;;;32.10;1.00;;;;;;4966131;28;21072;-70
2023/10/03 12:16:20;;;;;;;9.40;5.33;;;32.00;1.00;;;;;;4963324;28;20466;-70
2023/10/03 12:18:47;;;;;;;9.57;6.00;;;31.70;1.00;;;;;;4969470;28;20859;-70
2023/10/03 12:21:14;;;;;;;10.50;5.80;;;31.60;1.00;;;;;;4967005;28;20485;-70
2023/10/03 12:23:43;;;;;;;10.10;5.63;;;31.50;1.00;;;;;;4968624;28;20485;-70
2023/10/03 12:26:10;;;;;;;8.07;5.47;;;31.30;1.00;;;;;;4967529;28;20454;-70
2023/10/03 12:28:37;;;;;;;8.90;5.40;;;31.00;1.00;;;;;;4966524;28;20465;-70
2023/10/03 12:31:05;;;;;;;10.87;5.67;;;30.90;1.00;;;;;;4967335;28;20481;-70
2023/10/03 12:33:31;;;;;;;10.70;5.17;;;30.80;1.00;;;;;;4970165;28;20458;-71
2023/10/03 12:36:00;;;;;;;10.93;5.60;;;30.60;1.00;;;;;;4969307;28;20477;-70
2023/10/03 12:38:28;;;;;;;17.80;6.03;;;30.50;1.00;;;;;;4962851;28;20946;-70
2023/10/03 12:40:57;;;;;;;11.23;5.90;;;30.40;1.00;;;;;;4967172;28;20477;-70
2023/10/03 12:43:25;;;;;;;11.30;5.77;;;30.20;1.00;;;;;;4958654;28;20469;-70
2023/10/03 12:45:52;;;;;;;11.77;5.77;;;30.10;1.00;;;;;;4966015;28;20462;-70
2023/10/03 12:48:19;;;;;;;9.60;5.67;;;30.00;1.00;;;;;;4967029;28;20820;-70